Time;durP1;ratioP1;P1;durP2;ratioP2;P2;SDS_P1;SDS_P2;PMS_P1;PMS_P2;Temp;Humidity;BMP_temperature;BMP_pressure;BME280_temperature;BME280_humidity;BME280_pressure;Samples;Min_cycle;Max_cycle;Signal;HPM_P1;HPM_P2
2021/12/06 00:01:52;;;;;;;9.57;5.90;;;;;;;0.60;100.00;93713.69;5040057;28;20206;-72
2021/12/06 00:04:22;;;;;;;9.73;5.63;;;;;;;0.78;100.00;93714.75;5045640;28;20285;-72
2021/12/06 00:06:53;;;;;;;8.73;5.77;;;;;;;0.86;100.00;93721.47;5053076;28;20194;-73
2021/12/06 00:09:22;;;;;;;7.50;5.50;;;;;;;0.90;100.00;93713.31;5041248;28;20191;-72
2021/12/06 00:11:51;;;;;;;9.23;5.23;;;;;;;0.50;100.00;93720.09;5032512;28;20222;-72
2021/12/06 00:14:17;;;;;;;7.77;5.40;;;;;;;0.34;100.00;93717.44;5032358;28;20191;-72
2021/12/06 00:16:42;;;;;;;8.63;5.23;;;;;;;0.35;100.00;93714.31;5026547;28;20190;-72
2021/12/06 00:19:08;;;;;;;8.10;5.13;;;;;;;0.45;100.00;93721.34;5047296;28;20211;-72
2021/12/06 00:21:34;;;;;;;11.73;5.47;;;;;;;0.33;100.00;93721.28;5031306;28;20207;-72
2021/12/06 00:24:00;;;;;;;9.10;5.57;;;;;;;0.24;100.00;93719.19;5038379;28;20218;-72
2021/12/06 00:26:26;;;;;;;9.40;6.00;;;;;;;0.13;100.00;93717.94;5052232;28;20186;-72
2021/12/06 00:28:57;;;;;;;7.13;5.37;;;;;;;0.19;100.00;93710.91;5044947;28;20202;-72
2021/12/06 00:31:25;;;;;;;8.90;5.10;;;;;;;0.18;100.00;93717.41;5032201;28;20253;-72
2021/12/06 00:33:57;;;;;;;7.57;5.17;;;;;;;0.20;100.00;93718.53;5022176;28;20215;-72
2021/12/06 00:36:28;;;;;;;8.77;6.03;;;;;;;0.31;100.00;93723.63;5034673;28;20187;-72
2021/12/06 00:38:55;;;;;;;9.37;5.80;;;;;;;0.28;100.00;93721.78;5043611;28;20301;-72
2021/12/06 00:41:21;;;;;;;7.53;5.23;;;;;;;0.48;100.00;93725.88;5045936;28;20202;-72
2021/12/06 00:43:47;;;;;;;6.20;4.93;;;;;;;0.38;100.00;93729.59;5035001;28;20223;-72
2021/12/06 00:46:13;;;;;;;6.63;5.27;;;;;;;0.21;100.00;93730.00;5035221;28;20218;-71
2021/12/06 00:48:39;;;;;;;7.47;5.30;;;;;;;0.26;100.00;93721.44;5056420;28;20186;-71
2021/12/06 00:51:06;;;;;;;9.50;5.30;;;;;;;0.48;100.00;93731.25;5061567;28;20198;-71
2021/12/06 00:53:32;;;;;;;8.00;4.90;;;;;;;0.55;100.00;93743.75;5045090;28;20696;-73
2021/12/06 00:55:58;;;;;;;6.50;4.77;;;;;;;0.37;100.00;93732.69;5063025;28;20305;-72
2021/12/06 00:58:24;;;;;;;9.30;5.67;;;;;;;0.41;100.00;93736.78;5045244;28;20221;-72
2021/12/06 01:00:53;;;;;;;7.67;5.40;;;;;;;0.20;100.00;93750.75;5061965;28;20196;-72
2021/12/06 01:03:24;;;;;;;7.27;5.30;;;;;;;0.19;100.00;93743.09;5056463;28;20707;-71
2021/12/06 01:05:49;;;;;;;6.43;5.03;;;;;;;0.10;100.00;93745.63;5051108;28;20539;-72
2021/12/06 01:08:17;;;;;;;10.63;5.80;;;;;;;0.03;100.00;93751.13;5050075;28;20205;-72
2021/12/06 01:10:43;;;;;;;6.73;5.47;;;;;;;0.07;100.00;93739.13;5032388;28;20556;-72
2021/12/06 01:13:10;;;;;;;8.03;5.80;;;;;;;0.06;100.00;93750.28;5032916;28;20214;-71
2021/12/06 01:15:43;;;;;;;7.67;5.53;;;;;;;0.04;100.00;93756.09;5044352;28;20220;-73
2021/12/06 01:18:11;;;;;;;8.60;5.30;;;;;;;0.02;100.00;93760.38;5028197;28;20297;-72
2021/12/06 01:20:46;;;;;;;8.27;5.10;;;;;;;-0.02;100.00;93757.75;5042585;28;20217;-72
2021/12/06 01:23:15;;;;;;;8.50;5.30;;;;;;;-0.03;100.00;93764.28;5045041;28;20237;-71
2021/12/06 01:28:34;;;;;;;9.97;6.27;;;;;;;-0.02;100.00;93768.50;5050791;28;20225;-72
2021/12/06 01:31:08;;;;;;;6.47;4.90;;;;;;;-0.03;100.00;93765.03;5048804;28;20248;-72
2021/12/06 01:34:03;;;;;;;8.17;4.90;;;;;;;0.03;100.00;93773.38;5045614;28;20214;-72
2021/12/06 01:39:18;;;;;;;7.27;5.30;;;;;;;0.18;100.00;93766.50;5045666;28;20637;-72
2021/12/06 01:41:55;;;;;;;9.93;5.10;;;;;;;0.46;100.00;93762.41;5035624;28;20195;-72
2021/12/06 01:44:32;;;;;;;6.07;5.00;;;;;;;0.24;100.00;93778.25;5014112;28;20198;-72
2021/12/06 01:47:22;;;;;;;5.67;4.57;;;;;;;0.11;100.00;93776.63;5047937;28;20284;-72
2021/12/06 01:49:52;;;;;;;11.27;5.47;;;;;;;0.11;100.00;93782.75;5062422;28;20200;-72
2021/12/06 01:52:29;;;;;;;7.53;4.50;;;;;;;0.23;100.00;93778.66;5024668;28;20219;-72
2021/12/06 01:54:56;;;;;;;5.43;4.23;;;;;;;0.03;100.00;93787.53;5013633;28;20199;-72
2021/12/06 01:57:24;;;;;;;7.17;4.37;;;;;;;0.41;100.00;93781.72;5039545;28;20202;-71
2021/12/06 01:59:52;;;;;;;5.40;4.77;;;;;;;0.37;100.00;93786.41;5049871;28;20277;-72
2021/12/06 02:02:19;;;;;;;5.03;4.13;;;;;;;0.54;100.00;93788.69;5043046;28;20775;-72
2021/12/06 02:04:44;;;;;;;6.83;4.20;;;;;;;0.36;100.00;93792.91;5029504;28;20652;-72
2021/12/06 02:07:15;;;;;;;6.10;4.57;;;;;;;0.16;100.00;93797.59;5031082;28;20218;-72
2021/12/06 02:09:46;;;;;;;6.13;4.73;;;;;;;0.08;100.00;93796.25;5013985;28;20199;-71
2021/12/06 02:12:14;;;;;;;6.07;4.43;;;;;;;0.03;100.00;93796.75;5029394;28;20261;-72
2021/12/06 02:17:30;;;;;;;6.93;4.53;;;;;;;0.24;100.00;93802.41;5034106;28;20190;-72
2021/12/06 02:20:04;;;;;;;4.87;4.30;;;;;;;0.28;100.00;93802.31;5042133;28;20210;-71
2021/12/06 02:22:33;;;;;;;5.73;3.70;;;;;;;0.33;100.00;93801.81;5031077;28;20211;-72
2021/12/06 02:24:59;;;;;;;5.80;4.00;;;;;;;0.21;100.00;93803.25;5027627;28;20650;-72
2021/12/06 02:27:27;;;;;;;8.17;4.33;;;;;;;0.38;100.00;93801.31;5049067;28;20755;-71
2021/12/06 02:29:56;;;;;;;7.00;3.57;;;;;;;0.36;100.00;93812.47;5039280;28;20550;-72
2021/12/06 02:32:23;;;;;;;5.13;3.87;;;;;;;0.56;100.00;93813.16;5028837;28;20551;-71
2021/12/06 02:34:53;;;;;;;5.10;4.20;;;;;;;0.46;100.00;93837.59;5048098;28;20201;-72
2021/12/06 02:37:24;;;;;;;7.37;4.73;;;;;;;0.25;100.00;93819.28;5050467;28;20537;-72
2021/12/06 02:39:51;;;;;;;8.17;4.37;;;;;;;0.16;100.00;93819.84;5048378;28;20316;-71
2021/12/06 02:42:17;;;;;;;7.13;3.60;;;;;;;0.24;100.00;93818.50;5034809;28;20215;-72
2021/12/06 02:44:44;;;;;;;11.53;4.37;;;;;;;0.34;100.00;93822.16;5029314;28;20225;-72
2021/12/06 02:47:12;;;;;;;7.57;4.13;;;;;;;0.16;100.00;93825.22;5042655;28;20190;-72
2021/12/06 02:49:38;;;;;;;6.37;3.40;;;;;;;0.13;100.00;93831.41;5039101;28;20199;-72
2021/12/06 02:52:05;;;;;;;7.17;4.63;;;;;;;0.12;100.00;93832.56;5043341;28;20225;-72
2021/12/06 02:54:31;;;;;;;8.50;4.00;;;;;;;0.14;100.00;93832.91;5032939;28;20206;-72
2021/12/06 02:59:43;;;;;;;6.10;4.33;;;;;;;0.09;100.00;93835.34;5028673;28;20190;-72
2021/12/06 03:02:14;;;;;;;5.77;4.10;;;;;;;0.16;100.00;93830.56;5035171;28;20222;-71
2021/12/06 03:04:41;;;;;;;6.03;3.90;;;;;;;0.15;100.00;93834.44;5035972;28;20186;-72
2021/12/06 03:07:09;;;;;;;5.60;3.90;;;;;;;0.26;100.00;93839.56;5052539;28;20194;-72
2021/12/06 03:09:37;;;;;;;4.33;3.77;;;;;;;0.31;100.00;93839.84;5021203;28;20191;-72
2021/12/06 03:12:05;;;;;;;6.00;3.80;;;;;;;0.30;100.00;93842.94;5050056;28;20255;-72
2021/12/06 03:14:34;;;;;;;9.73;3.97;;;;;;;0.35;100.00;93843.19;5049786;28;20240;-73
2021/12/06 03:17:07;;;;;;;5.27;4.30;;;;;;;0.57;100.00;93848.84;5034055;28;20259;-73
2021/12/06 03:19:34;;;;;;;7.53;3.67;;;;;;;0.35;100.00;93853.94;5045718;28;20246;-71
2021/12/06 03:22:00;;;;;;;6.70;3.70;;;;;;;0.30;100.00;93854.44;5042987;28;20207;-72
2021/12/06 03:24:26;;;;;;;6.97;4.40;;;;;;;0.46;100.00;93859.09;5026011;28;20198;-72
2021/12/06 03:26:53;;;;;;;6.53;4.20;;;;;;;0.51;100.00;93853.22;5045284;28;20198;-72
2021/12/06 03:29:20;;;;;;;5.07;3.93;;;;;;;0.52;100.00;93868.91;5030119;28;20190;-73
2021/12/06 03:31:47;;;;;;;5.70;3.90;;;;;;;0.37;100.00;93859.66;5051304;28;20221;-73
2021/12/06 03:34:19;;;;;;;6.20;4.00;;;;;;;0.34;100.00;93865.09;5052368;28;20192;-72
2021/12/06 03:36:47;;;;;;;8.93;5.23;;;;;;;0.35;100.00;93866.59;5026748;28;20187;-72
2021/12/06 03:39:20;;;;;;;6.67;4.67;;;;;;;0.32;100.00;93872.81;5052535;28;20226;-72
2021/12/06 03:41:52;;;;;;;8.60;5.13;;;;;;;0.43;100.00;93876.00;5043302;28;20203;-73
2021/12/06 03:44:20;;;;;;;9.37;5.30;;;;;;;0.47;100.00;93882.06;5052348;28;20199;-72
2021/12/06 03:46:48;;;;;;;11.23;5.13;;;;;;;0.40;100.00;93885.66;5061762;28;20190;-71
2021/12/06 03:49:17;;;;;;;8.27;5.10;;;;;;;0.40;100.00;93879.53;5053842;28;20233;-71
2021/12/06 03:51:45;;;;;;;6.83;4.40;;;;;;;0.32;100.00;93880.88;5047241;28;20188;-72
2021/12/06 03:54:19;;;;;;;6.97;4.80;;;;;;;0.33;100.00;93895.78;5046445;28;20215;-71
2021/12/06 03:56:45;;;;;;;10.33;6.53;;;;;;;0.39;100.00;93896.84;5049494;28;20258;-71
2021/12/06 03:59:11;;;;;;;6.83;5.23;;;;;;;0.39;100.00;93894.88;5051148;28;20265;-72
2021/12/06 04:01:38;;;;;;;9.37;7.57;;;;;;;0.41;100.00;93902.53;5051330;28;20244;-73
2021/12/06 04:04:07;;;;;;;10.83;7.23;;;;;;;0.67;100.00;93899.66;5047704;28;20303;-72
2021/12/06 04:06:35;;;;;;;13.03;8.20;;;;;;;0.57;100.00;93891.81;5031593;28;20194;-72
2021/12/06 04:09:03;;;;;;;27.17;17.60;;;;;;;0.47;100.00;93908.94;5019606;28;20195;-72
2021/12/06 04:11:29;;;;;;;8.87;6.63;;;;;;;0.42;100.00;93896.75;5031776;28;20274;-72
2021/12/06 04:13:55;;;;;;;8.37;6.50;;;;;;;0.39;100.00;93904.88;5035171;28;20285;-72
2021/12/06 04:16:21;;;;;;;8.10;6.10;;;;;;;0.37;100.00;93899.94;5037954;28;20277;-72
2021/12/06 04:18:49;;;;;;;15.10;10.20;;;;;;;0.58;100.00;93904.06;5054078;28;20217;-72
2021/12/06 04:21:17;;;;;;;15.77;11.90;;;;;;;0.54;100.00;93906.84;5046344;28;20201;-72
2021/12/06 04:23:43;;;;;;;17.50;12.70;;;;;;;0.73;100.00;93907.97;5050741;28;20218;-72
2021/12/06 04:26:10;;;;;;;15.70;10.37;;;;;;;0.95;100.00;93922.44;5039374;28;20203;-72
2021/12/06 04:28:43;;;;;;;11.97;8.03;;;;;;;0.70;100.00;93919.53;5046119;28;20193;-72
2021/12/06 04:31:09;;;;;;;12.30;7.87;;;;;;;0.53;100.00;93929.50;5052360;28;20201;-72
2021/12/06 04:33:36;;;;;;;10.70;8.23;;;;;;;0.56;100.00;93925.97;5045413;28;20700;-71
2021/12/06 04:36:02;;;;;;;11.57;7.60;;;;;;;0.61;100.00;93922.06;5050452;28;20193;-71
2021/12/06 04:38:29;;;;;;;13.03;9.07;;;;;;;0.49;100.00;93928.84;5039569;28;20304;-72
2021/12/06 04:40:59;;;;;;;14.43;8.47;;;;;;;0.44;100.00;93940.03;5046678;28;20203;-72
2021/12/06 04:43:26;;;;;;;11.77;9.00;;;;;;;0.46;100.00;93931.59;5044074;28;20603;-72
2021/12/06 04:45:51;;;;;;;11.17;8.60;;;;;;;0.47;100.00;93938.47;5044373;28;20205;-72
2021/12/06 04:48:17;;;;;;;16.83;9.17;;;;;;;0.38;100.00;93932.91;5039130;28;20266;-71
2021/12/06 04:50:44;;;;;;;15.30;9.50;;;;;;;0.42;100.00;93937.03;5026316;28;20338;-71
2021/12/06 04:53:14;;;;;;;11.77;8.70;;;;;;;0.38;100.00;93947.09;5034128;28;20712;-72
2021/12/06 04:56:12;;;;;;;12.33;8.93;;;;;;;0.36;100.00;93949.44;5032071;28;20271;-71
2021/12/06 04:58:46;;;;;;;11.27;8.73;;;;;;;0.48;100.00;93948.78;5036558;28;20220;-71
2021/12/06 05:01:19;;;;;;;14.47;10.77;;;;;;;0.50;100.00;93953.75;5033398;28;20221;-72
2021/12/06 05:03:45;;;;;;;19.40;10.17;;;;;;;0.47;100.00;93958.03;5051092;28;20293;-71
2021/12/06 05:06:20;;;;;;;13.83;10.03;;;;;;;0.57;100.00;93954.38;5016847;28;20198;-72
2021/12/06 05:08:51;;;;;;;14.50;10.57;;;;;;;0.65;100.00;93963.78;5047210;28;20269;-72
2021/12/06 05:11:19;;;;;;;11.30;9.53;;;;;;;0.54;100.00;93970.56;5044489;28;20194;-71
2021/12/06 05:13:47;;;;;;;12.20;10.03;;;;;;;0.43;100.00;93968.06;5062849;28;20256;-71
2021/12/06 05:16:14;;;;;;;15.50;10.10;;;;;;;0.44;100.00;93963.47;5035749;28;20195;-71
2021/12/06 05:18:41;;;;;;;13.63;9.80;;;;;;;0.52;100.00;93968.28;5031554;28;20265;-71
2021/12/06 05:21:07;;;;;;;11.47;9.63;;;;;;;0.48;100.00;93967.59;5050193;28;20198;-72
2021/12/06 05:23:33;;;;;;;16.30;10.13;;;;;;;0.47;100.00;93971.47;5048008;28;20306;-71
2021/12/06 05:25:59;;;;;;;15.87;9.73;;;;;;;0.50;100.00;93973.31;5047184;28;20273;-72
2021/12/06 05:28:30;;;;;;;10.20;9.13;;;;;;;0.54;100.00;93981.28;5029342;28;20213;-72
2021/12/06 05:30:57;;;;;;;12.50;9.77;;;;;;;0.51;100.00;93987.50;5029839;28;20191;-72
2021/12/06 05:33:29;;;;;;;13.50;10.80;;;;;;;0.44;100.00;93974.94;5030201;28;20215;-72
2021/12/06 05:36:01;;;;;;;13.57;10.60;;;;;;;0.47;100.00;93981.44;5030833;28;20203;-72
2021/12/06 05:38:27;;;;;;;13.20;9.90;;;;;;;0.43;100.00;93989.56;5030938;28;20240;-72
2021/12/06 05:40:53;;;;;;;16.47;10.33;;;;;;;0.37;100.00;93993.16;5040935;28;20198;-72
2021/12/06 05:43:19;;;;;;;12.80;10.00;;;;;;;0.42;100.00;93996.13;5061720;28;20235;-72
2021/12/06 05:45:45;;;;;;;14.93;10.30;;;;;;;0.46;100.00;94007.53;5050152;28;20199;-71
2021/12/06 05:48:11;;;;;;;13.73;10.63;;;;;;;0.47;100.00;94008.28;5012132;28;20187;-71
2021/12/06 05:50:36;;;;;;;15.67;11.07;;;;;;;0.42;100.00;94012.22;5030521;28;20206;-71
2021/12/06 05:53:03;;;;;;;11.87;9.93;;;;;;;0.55;100.00;94023.84;5017839;28;20210;-72
2021/12/06 05:55:29;;;;;;;13.07;10.13;;;;;;;0.54;100.00;94022.34;5049434;28;20187;-71
2021/12/06 05:58:00;;;;;;;13.97;10.53;;;;;;;0.52;100.00;94013.19;5031251;28;20316;-72
2021/12/06 06:00:29;;;;;;;14.30;10.60;;;;;;;0.55;100.00;94036.53;5051974;28;20272;-72
2021/12/06 06:02:55;;;;;;;14.37;10.90;;;;;;;0.50;100.00;94032.41;5047867;28;20207;-72
2021/12/06 06:05:21;;;;;;;19.83;12.57;;;;;;;0.45;100.00;94032.13;5016309;28;20191;-72
2021/12/06 06:07:48;;;;;;;16.07;11.47;;;;;;;0.50;100.00;94031.63;5036131;28;20711;-72
2021/12/06 06:10:15;;;;;;;17.00;11.70;;;;;;;0.51;100.00;94038.53;5047878;28;20214;-72
2021/12/06 06:12:41;;;;;;;15.83;11.17;;;;;;;0.63;100.00;94052.09;5050751;28;20198;-72
2021/12/06 06:15:08;;;;;;;22.40;12.73;;;;;;;0.70;100.00;94051.94;5041264;28;20199;-71
2021/12/06 06:17:40;;;;;;;16.53;11.83;;;;;;;0.80;100.00;94060.94;5042225;28;20205;-71
2021/12/06 06:20:34;;;;;;;21.17;12.40;;;;;;;0.83;100.00;94055.50;5030497;28;20191;-71
2021/12/06 06:23:00;;;;;;;15.20;12.30;;;;;;;0.71;100.00;94053.44;5033041;28;20207;-70
2021/12/06 06:25:28;;;;;;;16.17;10.80;;;;;;;0.67;100.00;94060.84;5042253;28;20290;-71
2021/12/06 06:27:53;;;;;;;17.07;11.00;;;;;;;0.73;100.00;94067.22;5037300;28;20262;-70
2021/12/06 06:30:19;;;;;;;19.17;14.33;;;;;;;0.62;100.00;94066.69;5047610;28;20257;-71
2021/12/06 06:32:46;;;;;;;19.03;13.17;;;;;;;0.56;100.00;94071.03;5083622;28;20271;-71
2021/12/06 06:35:14;;;;;;;19.47;13.37;;;;;;;0.57;100.00;94074.47;5072818;28;20324;-71
2021/12/06 06:37:40;;;;;;;15.93;12.40;;;;;;;0.59;100.00;94072.13;5063436;28;20240;-71
2021/12/06 06:40:07;;;;;;;19.97;12.80;;;;;;;0.61;100.00;94070.53;5065857;28;20250;-71
2021/12/06 06:42:32;;;;;;;15.20;11.77;;;;;;;0.63;100.00;94081.63;5047711;28;20221;-71
2021/12/06 06:44:58;;;;;;;16.80;11.13;;;;;;;0.60;100.00;94079.78;5056608;28;20250;-71
2021/12/06 06:47:23;;;;;;;18.17;11.43;;;;;;;0.92;100.00;94084.50;5055485;28;20202;-71
2021/12/06 06:49:49;;;;;;;17.83;12.57;;;;;;;1.06;100.00;94095.75;5040928;28;20237;-71
2021/12/06 06:52:16;;;;;;;23.77;12.10;;;;;;;1.16;100.00;94085.94;5054913;28;20206;-70
2021/12/06 06:54:42;;;;;;;15.97;11.83;;;;;;;0.98;100.00;94104.38;5054618;28;20190;-70
2021/12/06 06:57:09;;;;;;;15.27;11.77;;;;;;;0.83;100.00;94105.81;5036108;28;20196;-70
2021/12/06 06:59:35;;;;;;;16.63;11.47;;;;;;;0.73;100.00;94109.50;5045071;28;20214;-70
2021/12/06 07:02:01;;;;;;;14.50;10.97;;;;;;;0.70;100.00;94113.75;5051925;28;20194;-70
2021/12/06 07:04:27;;;;;;;19.73;11.70;;;;;;;0.64;100.00;94117.31;5035726;28;20216;-71
2021/12/06 07:06:53;;;;;;;19.63;12.90;;;;;;;0.74;100.00;94121.72;5057403;28;20221;-71
2021/12/06 07:09:19;;;;;;;16.80;11.90;;;;;;;0.65;100.00;94124.19;5065763;28;20209;-71
2021/12/06 07:11:46;;;;;;;16.53;11.67;;;;;;;0.66;100.00;94129.16;5038179;28;20202;-71
2021/12/06 07:14:15;;;;;;;21.00;12.33;;;;;;;0.54;100.00;94126.34;5046761;28;20773;-71
2021/12/06 07:16:42;;;;;;;19.43;13.33;;;;;;;0.60;100.00;94138.13;5039488;28;20191;-71
2021/12/06 07:19:08;;;;;;;15.83;12.00;;;;;;;0.58;100.00;94135.84;5033140;28;20203;-71
2021/12/06 07:21:35;;;;;;;20.70;13.70;;;;;;;0.53;100.00;94144.38;5045418;28;20197;-71
2021/12/06 07:24:01;;;;;;;24.77;14.10;;;;;;;0.47;100.00;94146.03;5045686;28;20700;-71
2021/12/06 07:26:27;;;;;;;24.40;15.40;;;;;;;0.55;100.00;94149.34;5049441;28;20749;-71
2021/12/06 07:28:55;;;;;;;20.87;15.47;;;;;;;0.57;100.00;94147.78;5049047;28;20190;-71
2021/12/06 07:31:24;;;;;;;23.50;15.27;;;;;;;0.53;100.00;94149.75;5032760;28;20649;-71
2021/12/06 07:33:51;;;;;;;26.60;15.93;;;;;;;0.52;100.00;94158.22;5032843;28;20700;-71
2021/12/06 07:36:22;;;;;;;27.57;15.93;;;;;;;0.45;100.00;94155.66;5037747;28;20663;-71
2021/12/06 07:38:50;;;;;;;23.17;16.13;;;;;;;0.37;100.00;94165.00;5055179;28;20211;-71
2021/12/06 07:41:19;;;;;;;22.33;15.00;;;;;;;0.37;100.00;94159.66;5032925;28;20546;-71
2021/12/06 07:43:45;;;;;;;22.90;16.13;;;;;;;0.31;100.00;94156.66;5032110;28;20642;-71
2021/12/06 07:46:11;;;;;;;18.47;13.93;;;;;;;0.36;100.00;94166.16;5033039;28;20226;-71
2021/12/06 07:48:38;;;;;;;20.77;14.33;;;;;;;0.32;100.00;94166.25;5037567;28;20660;-71
2021/12/06 07:51:05;;;;;;;16.40;13.00;;;;;;;0.37;100.00;94165.78;5047328;28;20526;-71
2021/12/06 07:53:33;;;;;;;21.73;12.33;;;;;;;0.53;100.00;94163.19;5034421;28;20207;-71
2021/12/06 07:56:00;;;;;;;7.17;5.93;;;;;;;0.44;100.00;94165.63;5050530;28;20194;-71
2021/12/06 07:58:26;;;;;;;7.57;5.77;;;;;;;0.72;100.00;94156.31;5047456;28;20219;-71
2021/12/06 08:00:53;;;;;;;7.40;6.30;;;;;;;0.73;100.00;94169.34;5052709;28;20195;-72
2021/12/06 08:03:22;;;;;;;7.50;6.20;;;;;;;0.98;100.00;94158.13;5033939;28;20213;-71
2021/12/06 08:05:50;;;;;;;8.70;7.17;;;;;;;1.20;100.00;94164.59;5051498;28;20187;-72
2021/12/06 08:08:28;;;;;;;8.30;7.40;;;;;;;1.13;100.00;94170.88;5051168;28;20250;-71
2021/12/06 08:11:05;;;;;;;10.00;7.70;;;;;;;1.26;100.00;94179.06;5072713;28;20190;-71
2021/12/06 08:13:33;;;;;;;8.73;7.37;;;;;;;1.35;100.00;94187.34;5037700;28;20219;-71
2021/12/06 08:16:01;;;;;;;9.97;7.37;;;;;;;1.32;100.00;94187.41;5031524;28;20759;-71
2021/12/06 08:18:27;;;;;;;8.03;6.60;;;;;;;1.22;100.00;94183.78;5048964;28;20660;-72
2021/12/06 08:20:53;;;;;;;10.67;7.13;;;;;;;1.12;100.00;94196.25;5048792;28;20281;-71
2021/12/06 08:23:18;;;;;;;9.83;7.13;;;;;;;1.13;100.00;94197.78;5041302;28;20215;-72
2021/12/06 08:25:47;;;;;;;9.27;7.03;;;;;;;1.07;100.00;94199.41;5052479;28;20624;-71
2021/12/06 08:28:14;;;;;;;9.87;7.43;;;;;;;1.26;100.00;94208.66;5046596;28;20182;-71
2021/12/06 08:30:40;;;;;;;13.33;7.27;;;;;;;1.28;100.00;94206.31;5045473;28;20205;-72
2021/12/06 08:33:07;;;;;;;9.23;7.00;;;;;;;1.18;100.00;94209.97;5051385;28;20206;-71
2021/12/06 08:35:36;;;;;;;12.20;8.77;;;;;;;0.97;100.00;94218.41;5034106;28;20190;-73
2021/12/06 08:38:03;;;;;;;15.00;10.13;;;;;;;0.81;100.00;94213.75;5049664;28;20253;-72
2021/12/06 08:40:30;;;;;;;15.53;10.57;;;;;;;0.77;100.00;94213.03;5045384;28;20202;-72
2021/12/06 08:42:56;;;;;;;17.20;11.23;;;;;;;0.96;100.00;94216.91;5030007;28;20214;-71
2021/12/06 08:45:23;;;;;;;14.20;11.10;;;;;;;1.29;100.00;94215.88;5031526;28;20199;-71
2021/12/06 08:47:49;;;;;;;13.53;10.77;;;;;;;1.72;100.00;94226.53;5031674;28;20187;-71
2021/12/06 08:50:19;;;;;;;13.67;10.00;;;;;;;1.99;100.00;94235.19;5029243;28;20556;-71
2021/12/06 08:52:46;;;;;;;14.87;10.47;;;;;;;1.93;100.00;94237.63;5034206;28;20221;-71
2021/12/06 08:55:12;;;;;;;13.63;10.63;;;;;;;1.80;100.00;94228.66;5050779;28;20190;-71
2021/12/06 08:57:39;;;;;;;14.40;10.93;;;;;;;1.78;100.00;94252.53;5044566;28;20226;-71
2021/12/06 09:00:15;;;;;;;18.90;12.60;;;;;;;1.62;100.00;94244.44;5045377;28;20206;-71
2021/12/06 09:02:41;;;;;;;18.10;11.67;;;;;;;1.74;100.00;94245.72;5057091;28;20233;-71
2021/12/06 09:05:08;;;;;;;16.33;11.87;;;;;;;1.55;100.00;94246.50;5066298;28;20244;-71
2021/12/06 09:07:34;;;;;;;17.03;11.80;;;;;;;1.57;100.00;94261.06;5057097;28;20199;-70
2021/12/06 09:09:59;;;;;;;17.77;11.77;;;;;;;1.59;100.00;94250.66;5069082;28;20198;-70
2021/12/06 09:12:30;;;;;;;17.07;13.17;;;;;;;1.80;100.00;94262.91;5071610;28;20292;-71
2021/12/06 09:14:58;;;;;;;17.37;11.27;;;;;;;1.85;100.00;94262.44;5058409;28;20202;-70
2021/12/06 09:17:25;;;;;;;16.57;12.30;;;;;;;1.84;100.00;94252.81;5031986;28;20202;-71
2021/12/06 09:19:51;;;;;;;17.73;12.47;;;;;;;2.07;100.00;94256.16;5048137;28;20191;-71
2021/12/06 09:22:17;;;;;;;17.93;12.20;;;;;;;2.10;100.00;94270.72;5066180;28;20279;-71
2021/12/06 09:24:43;;;;;;;18.33;12.10;;;;;;;2.53;100.00;94259.75;5069490;28;20206;-72
2021/12/06 09:27:09;;;;;;;15.73;11.07;;;;;;;2.58;100.00;94261.94;5069744;28;20197;-71
2021/12/06 09:29:36;;;;;;;13.93;10.93;;;;;;;2.38;100.00;94259.31;5055323;28;20211;-71
2021/12/06 09:32:08;;;;;;;15.70;11.40;;;;;;;2.66;100.00;94265.97;5039676;28;20206;-71
2021/12/06 09:34:37;;;;;;;19.77;12.50;;;;;;;2.82;100.00;94260.59;5063002;28;20210;-72
2021/12/06 09:37:04;;;;;;;14.97;12.37;;;;;;;2.71;100.00;94260.84;5052255;28;20397;-71
2021/12/06 09:39:29;;;;;;;14.07;11.00;;;;;;;2.47;100.00;94254.84;5045405;28;20225;-71
2021/12/06 09:41:55;;;;;;;16.07;11.47;;;;;;;2.29;100.00;94270.66;5051525;28;20198;-72
2021/12/06 09:44:21;;;;;;;16.47;12.07;;;;;;;2.36;100.00;94267.03;5047209;28;20194;-71
2021/12/06 09:46:47;;;;;;;15.40;11.97;;;;;;;2.15;100.00;94251.38;5030302;28;20274;-72
2021/12/06 09:49:17;;;;;;;16.87;12.57;;;;;;;2.41;100.00;94256.53;5033772;28;20244;-72
2021/12/06 09:51:51;;;;;;;16.03;11.93;;;;;;;2.52;100.00;94260.91;5031364;28;20195;-71
2021/12/06 09:54:39;;;;;;;15.90;11.10;;;;;;;2.61;100.00;94263.78;5030850;28;20206;-72
2021/12/06 09:57:08;;;;;;;16.67;11.73;;;;;;;2.43;100.00;94254.19;5042649;28;20198;-71
2021/12/06 09:59:35;;;;;;;15.47;12.37;;;;;;;2.15;100.00;94254.84;5015900;28;20203;-71
2021/12/06 10:02:05;;;;;;;14.93;11.53;;;;;;;2.01;100.00;94257.06;5033062;28;20249;-71
2021/12/06 10:04:33;;;;;;;14.80;11.67;;;;;;;1.97;100.00;94243.69;5034734;28;20187;-71
2021/12/06 10:07:00;;;;;;;14.57;11.53;;;;;;;2.24;100.00;94251.56;5043643;28;20243;-72
2021/12/06 10:09:27;;;;;;;14.83;11.47;;;;;;;2.00;100.00;94248.22;5063963;28;20272;-72
2021/12/06 10:11:58;;;;;;;14.33;10.73;;;;;;;1.69;100.00;94252.38;5053428;28;20190;-71
2021/12/06 10:14:24;;;;;;;14.23;11.10;;;;;;;1.97;100.00;94257.13;5053987;28;20644;-72
2021/12/06 10:16:50;;;;;;;15.20;12.10;;;;;;;1.77;100.00;94251.03;5035161;28;20195;-71
2021/12/06 10:19:16;;;;;;;16.30;12.60;;;;;;;1.49;100.00;94248.94;5035259;28;20593;-71
2021/12/06 10:21:43;;;;;;;13.83;11.07;;;;;;;1.48;100.00;94252.03;5037561;28;20277;-71
2021/12/06 10:24:13;;;;;;;15.23;10.40;;;;;;;1.61;100.00;94247.53;5048799;28;20672;-71
2021/12/06 10:26:39;;;;;;;13.50;10.93;;;;;;;1.99;100.00;94245.94;5045837;28;20213;-71
2021/12/06 10:29:11;;;;;;;16.33;11.90;;;;;;;1.89;100.00;94247.69;5048574;28;20653;-71
2021/12/06 10:31:43;;;;;;;15.30;11.27;;;;;;;1.80;100.00;94244.81;5051786;28;20238;-71
2021/12/06 10:34:14;;;;;;;15.93;12.07;;;;;;;1.93;100.00;94243.00;5053300;28;20233;-71
2021/12/06 10:36:41;;;;;;;15.73;12.73;;;;;;;1.95;100.00;94246.03;5047361;28;20191;-71
2021/12/06 10:39:08;;;;;;;18.43;13.20;;;;;;;1.90;100.00;94243.81;5057302;28;20276;-71
2021/12/06 10:41:36;;;;;;;16.27;12.40;;;;;;;1.83;100.00;94237.84;5039825;28;20310;-71
2021/12/06 10:44:10;;;;;;;16.97;12.27;;;;;;;1.77;100.00;94244.88;5048852;28;20236;-71
2021/12/06 10:46:41;;;;;;;18.43;12.77;;;;;;;1.72;100.00;94250.75;5041706;28;20230;-71
2021/12/06 10:49:12;;;;;;;18.03;13.27;;;;;;;1.82;100.00;94244.41;5039794;28;20240;-71
2021/12/06 10:51:38;;;;;;;20.53;15.00;;;;;;;2.98;100.00;94250.53;5034030;28;20218;-71
2021/12/06 10:54:15;;;;;;;19.57;14.90;;;;;;;2.56;100.00;94243.50;5032648;28;20325;-72
2021/12/06 10:56:45;;;;;;;19.80;14.63;;;;;;;3.25;100.00;94234.78;5038353;28;20281;-71
2021/12/06 10:59:19;;;;;;;20.73;14.00;;;;;;;3.55;100.00;94247.06;5047792;28;20206;-72
2021/12/06 11:01:46;;;;;;;21.47;14.27;;;;;;;3.54;100.00;94240.94;5052911;28;20222;-71
2021/12/06 11:04:17;;;;;;;19.80;14.37;;;;;;;3.29;100.00;94250.88;5018425;28;20206;-71
2021/12/06 11:06:46;;;;;;;20.33;14.83;;;;;;;3.22;100.00;94241.03;5048679;28;20245;-72
2021/12/06 11:09:16;;;;;;;17.57;12.97;;;;;;;3.07;100.00;94245.25;5066027;28;20672;-72
2021/12/06 11:11:46;;;;;;;17.00;12.47;;;;;;;2.67;100.00;94243.97;5067678;28;20206;-72
2021/12/06 11:14:22;;;;;;;13.70;10.97;;;;;;;2.04;100.00;94240.84;5053980;28;20352;-71
2021/12/06 11:17:10;;;;;;;15.00;11.73;;;;;;;1.80;100.00;94242.13;5026809;28;20190;-71
2021/12/06 11:19:37;;;;;;;15.53;11.67;;;;;;;2.05;100.00;94249.69;5032809;28;20238;-71
2021/12/06 11:22:24;;;;;;;14.60;11.43;;;;;;;2.23;100.00;94250.03;5031551;28;20195;-71
2021/12/06 11:24:52;;;;;;;16.83;11.40;;;;;;;2.36;100.00;94248.94;5046384;28;20789;-71
2021/12/06 11:27:27;;;;;;;15.00;12.10;;;;;;;2.31;100.00;94249.44;5049495;28;20274;-71
2021/12/06 11:30:11;;;;;;;17.87;13.20;;;;;;;2.57;100.00;94242.31;5053010;28;20224;-71
2021/12/06 11:32:40;;;;;;;17.33;12.60;;;;;;;2.41;100.00;94248.44;5051533;28;20271;-71
2021/12/06 11:35:21;;;;;;;13.17;11.30;;;;;;;2.31;100.00;94251.38;5051706;28;20225;-71
2021/12/06 11:37:50;;;;;;;15.13;11.80;;;;;;;2.28;100.00;94244.13;5052900;28;20221;-72
2021/12/06 11:40:18;;;;;;;14.83;11.53;;;;;;;2.53;100.00;94260.47;5056015;28;20197;-72
2021/12/06 11:42:51;;;;;;;15.77;11.40;;;;;;;2.34;100.00;94251.31;5052357;28;20206;-71